sensor_id;sensor_type;location;lat;lon;timestamp;P1;durP1;ratioP1;P2;durP2;ratioP2
34317;SDS011;20582;52.196;20.952;2022-07-24T00:02:06;86.53;;;48.30;;
34317;SDS011;20582;52.196;20.952;2022-07-24T00:04:32;92.10;;;48.70;;
34317;SDS011;20582;52.196;20.952;2022-07-24T00:06:58;88.68;;;47.22;;
34317;SDS011;20582;52.196;20.952;2022-07-24T00:09:24;91.15;;;48.00;;
34317;SDS011;20582;52.196;20.952;2022-07-24T00:11:50;92.32;;;49.10;;
34317;SDS011;20582;52.196;20.952;2022-07-24T00:14:16;85.85;;;48.17;;
34317;SDS011;20582;52.196;20.952;2022-07-24T00:16:42;83.40;;;47.47;;
34317;SDS011;20582;52.196;20.952;2022-07-24T00:19:08;87.60;;;49.08;;
34317;SDS011;20582;52.196;20.952;2022-07-24T00:21:34;85.82;;;48.40;;
34317;SDS011;20582;52.196;20.952;2022-07-24T00:24:00;89.00;;;49.25;;
34317;SDS011;20582;52.196;20.952;2022-07-24T00:26:27;77.55;;;46.08;;
34317;SDS011;20582;52.196;20.952;2022-07-24T00:28:53;78.95;;;46.53;;
34317;SDS011;20582;52.196;20.952;2022-07-24T00:31:18;79.45;;;45.47;;
34317;SDS011;20582;52.196;20.952;2022-07-24T00:33:45;78.82;;;44.85;;
34317;SDS011;20582;52.196;20.952;2022-07-24T00:36:13;77.10;;;45.42;;
34317;SDS011;20582;52.196;20.952;2022-07-24T00:38:39;81.60;;;46.83;;
34317;SDS011;20582;52.196;20.952;2022-07-24T00:41:05;71.45;;;46.28;;
34317;SDS011;20582;52.196;20.952;2022-07-24T00:43:31;74.60;;;43.42;;
34317;SDS011;20582;52.196;20.952;2022-07-24T00:45:57;78.18;;;46.42;;
34317;SDS011;20582;52.196;20.952;2022-07-24T00:48:23;73.05;;;43.95;;
34317;SDS011;20582;52.196;20.952;2022-07-24T00:50:49;69.55;;;45.17;;
34317;SDS011;20582;52.196;20.952;2022-07-24T00:53:15;74.97;;;44.95;;
34317;SDS011;20582;52.196;20.952;2022-07-24T00:55:41;71.13;;;44.25;;
34317;SDS011;20582;52.196;20.952;2022-07-24T00:58:07;75.10;;;44.67;;
34317;SDS011;20582;52.196;20.952;2022-07-24T01:00:34;68.18;;;43.42;;
34317;SDS011;20582;52.196;20.952;2022-07-24T01:03:00;63.53;;;43.05;;
34317;SDS011;20582;52.196;20.952;2022-07-24T01:05:26;67.30;;;42.72;;
34317;SDS011;20582;52.196;20.952;2022-07-24T01:07:52;67.15;;;41.50;;
34317;SDS011;20582;52.196;20.952;2022-07-24T01:10:18;68.00;;;42.33;;
34317;SDS011;20582;52.196;20.952;2022-07-24T01:12:44;63.35;;;42.72;;
34317;SDS011;20582;52.196;20.952;2022-07-24T01:15:10;61.22;;;41.80;;
34317;SDS011;20582;52.196;20.952;2022-07-24T01:17:37;58.83;;;40.15;;
34317;SDS011;20582;52.196;20.952;2022-07-24T01:20:04;58.35;;;39.85;;
34317;SDS011;20582;52.196;20.952;2022-07-24T01:22:31;57.97;;;39.25;;
34317;SDS011;20582;52.196;20.952;2022-07-24T01:24:57;57.00;;;39.22;;
34317;SDS011;20582;52.196;20.952;2022-07-24T01:27:23;51.35;;;38.22;;
34317;SDS011;20582;52.196;20.952;2022-07-24T01:29:50;45.97;;;33.38;;
34317;SDS011;20582;52.196;20.952;2022-07-24T01:32:16;41.00;;;27.25;;
34317;SDS011;20582;52.196;20.952;2022-07-24T01:34:42;28.23;;;22.10;;
34317;SDS011;20582;52.196;20.952;2022-07-24T01:37:08;26.10;;;18.48;;
34317;SDS011;20582;52.196;20.952;2022-07-24T01:39:34;21.67;;;16.23;;
34317;SDS011;20582;52.196;20.952;2022-07-24T01:42:01;20.83;;;14.73;;
34317;SDS011;20582;52.196;20.952;2022-07-24T01:44:27;18.30;;;11.68;;
34317;SDS011;20582;52.196;20.952;2022-07-24T01:46:53;17.20;;;10.73;;
34317;SDS011;20582;52.196;20.952;2022-07-24T01:49:19;13.93;;;10.13;;
34317;SDS011;20582;52.196;20.952;2022-07-24T01:51:45;15.63;;;9.95;;
34317;SDS011;20582;52.196;20.952;2022-07-24T01:54:11;14.23;;;9.30;;
34317;SDS011;20582;52.196;20.952;2022-07-24T01:56:37;12.10;;;9.10;;
34317;SDS011;20582;52.196;20.952;2022-07-24T01:59:03;15.38;;;8.80;;
34317;SDS011;20582;52.196;20.952;2022-07-24T02:01:29;11.20;;;7.97;;
34317;SDS011;20582;52.196;20.952;2022-07-24T02:03:55;10.63;;;7.07;;
34317;SDS011;20582;52.196;20.952;2022-07-24T02:06:21;11.30;;;7.32;;
34317;SDS011;20582;52.196;20.952;2022-07-24T02:08:47;9.60;;;6.20;;
34317;SDS011;20582;52.196;20.952;2022-07-24T02:11:13;12.60;;;6.05;;
34317;SDS011;20582;52.196;20.952;2022-07-24T02:13:39;11.00;;;5.65;;
34317;SDS011;20582;52.196;20.952;2022-07-24T02:16:06;11.75;;;5.60;;
34317;SDS011;20582;52.196;20.952;2022-07-24T02:18:32;10.68;;;5.60;;
34317;SDS011;20582;52.196;20.952;2022-07-24T02:20:58;9.73;;;6.32;;
34317;SDS011;20582;52.196;20.952;2022-07-24T02:23:24;14.10;;;6.32;;
34317;SDS011;20582;52.196;20.952;2022-07-24T02:25:50;12.52;;;6.13;;
34317;SDS011;20582;52.196;20.952;2022-07-24T02:28:16;11.95;;;5.93;;
34317;SDS011;20582;52.196;20.952;2022-07-24T02:30:42;9.68;;;5.50;;
34317;SDS011;20582;52.196;20.952;2022-07-24T02:33:09;10.10;;;5.75;;
34317;SDS011;20582;52.196;20.952;2022-07-24T02:35:35;8.13;;;5.07;;
34317;SDS011;20582;52.196;20.952;2022-07-24T02:38:01;8.82;;;5.47;;
34317;SDS011;20582;52.196;20.952;2022-07-24T02:40:27;8.95;;;5.25;;
34317;SDS011;20582;52.196;20.952;2022-07-24T02:42:53;9.43;;;5.18;;
34317;SDS011;20582;52.196;20.952;2022-07-24T02:45:19;11.77;;;5.45;;
34317;SDS011;20582;52.196;20.952;2022-07-24T02:47:46;11.05;;;5.50;;
34317;SDS011;20582;52.196;20.952;2022-07-24T02:50:12;11.20;;;5.68;;
34317;SDS011;20582;52.196;20.952;2022-07-24T02:52:38;10.18;;;4.93;;
34317;SDS011;20582;52.196;20.952;2022-07-24T02:55:04;11.73;;;5.30;;
34317;SDS011;20582;52.196;20.952;2022-07-24T02:57:30;7.18;;;4.82;;
34317;SDS011;20582;52.196;20.952;2022-07-24T02:59:56;10.00;;;5.13;;
34317;SDS011;20582;52.196;20.952;2022-07-24T03:02:22;11.68;;;5.22;;
34317;SDS011;20582;52.196;20.952;2022-07-24T03:04:48;9.68;;;5.03;;
34317;SDS011;20582;52.196;20.952;2022-07-24T03:07:14;9.70;;;4.93;;
34317;SDS011;20582;52.196;20.952;2022-07-24T03:09:40;7.55;;;4.82;;
34317;SDS011;20582;52.196;20.952;2022-07-24T03:12:06;8.40;;;4.55;;
34317;SDS011;20582;52.196;20.952;2022-07-24T03:14:33;9.10;;;4.60;;
34317;SDS011;20582;52.196;20.952;2022-07-24T03:16:59;10.07;;;4.72;;
34317;SDS011;20582;52.196;20.952;2022-07-24T03:19:25;15.73;;;5.00;;
34317;SDS011;20582;52.196;20.952;2022-07-24T03:21:51;11.35;;;4.80;;
34317;SDS011;20582;52.196;20.952;2022-07-24T03:24:17;10.65;;;4.40;;
34317;SDS011;20582;52.196;20.952;2022-07-24T03:26:43;12.07;;;4.45;;
34317;SDS011;20582;52.196;20.952;2022-07-24T03:29:09;9.95;;;4.00;;
34317;SDS011;20582;52.196;20.952;2022-07-24T03:31:35;7.63;;;4.18;;
34317;SDS011;20582;52.196;20.952;2022-07-24T03:34:01;7.82;;;3.85;;
34317;SDS011;20582;52.196;20.952;2022-07-24T03:36:27;7.75;;;3.95;;
34317;SDS011;20582;52.196;20.952;2022-07-24T03:38:53;9.10;;;4.10;;
34317;SDS011;20582;52.196;20.952;2022-07-24T03:41:19;12.52;;;4.15;;
34317;SDS011;20582;52.196;20.952;2022-07-24T03:43:45;7.80;;;3.88;;
34317;SDS011;20582;52.196;20.952;2022-07-24T03:46:11;8.57;;;4.05;;
34317;SDS011;20582;52.196;20.952;2022-07-24T03:48:37;8.90;;;3.90;;
34317;SDS011;20582;52.196;20.952;2022-07-24T03:51:03;9.02;;;4.10;;
34317;SDS011;20582;52.196;20.952;2022-07-24T03:53:29;8.85;;;4.40;;
34317;SDS011;20582;52.196;20.952;2022-07-24T03:55:55;9.00;;;4.50;;
34317;SDS011;20582;52.196;20.952;2022-07-24T03:58:21;10.93;;;4.60;;
34317;SDS011;20582;52.196;20.952;2022-07-24T04:00:47;8.13;;;4.30;;
34317;SDS011;20582;52.196;20.952;2022-07-24T04:03:13;8.35;;;5.07;;
34317;SDS011;20582;52.196;20.952;2022-07-24T04:05:39;9.27;;;5.05;;
34317;SDS011;20582;52.196;20.952;2022-07-24T04:08:05;7.70;;;4.70;;
34317;SDS011;20582;52.196;20.952;2022-07-24T04:10:32;10.45;;;5.20;;
34317;SDS011;20582;52.196;20.952;2022-07-24T04:12:57;8.80;;;5.20;;
34317;SDS011;20582;52.196;20.952;2022-07-24T04:15:23;10.38;;;4.97;;
34317;SDS011;20582;52.196;20.952;2022-07-24T04:17:49;14.65;;;5.13;;
34317;SDS011;20582;52.196;20.952;2022-07-24T04:20:15;9.50;;;5.03;;
34317;SDS011;20582;52.196;20.952;2022-07-24T04:22:41;11.45;;;5.15;;
34317;SDS011;20582;52.196;20.952;2022-07-24T04:25:07;8.75;;;5.20;;
34317;SDS011;20582;52.196;20.952;2022-07-24T04:27:33;10.35;;;5.60;;
34317;SDS011;20582;52.196;20.952;2022-07-24T04:30:00;9.35;;;5.07;;
34317;SDS011;20582;52.196;20.952;2022-07-24T04:32:26;16.25;;;5.38;;
34317;SDS011;20582;52.196;20.952;2022-07-24T04:34:52;10.27;;;5.40;;
34317;SDS011;20582;52.196;20.952;2022-07-24T04:37:18;9.30;;;5.65;;
34317;SDS011;20582;52.196;20.952;2022-07-24T04:39:44;12.10;;;5.65;;
34317;SDS011;20582;52.196;20.952;2022-07-24T04:42:10;11.10;;;5.65;;
34317;SDS011;20582;52.196;20.952;2022-07-24T04:44:36;9.75;;;6.15;;
34317;SDS011;20582;52.196;20.952;2022-07-24T04:47:02;9.90;;;5.70;;
34317;SDS011;20582;52.196;20.952;2022-07-24T04:49:28;10.57;;;5.30;;
34317;SDS011;20582;52.196;20.952;2022-07-24T04:51:54;13.82;;;5.53;;
34317;SDS011;20582;52.196;20.952;2022-07-24T04:54:20;11.38;;;5.35;;
34317;SDS011;20582;52.196;20.952;2022-07-24T04:56:46;11.00;;;5.22;;
34317;SDS011;20582;52.196;20.952;2022-07-24T04:59:12;9.63;;;5.47;;
34317;SDS011;20582;52.196;20.952;2022-07-24T05:01:38;13.57;;;5.43;;
34317;SDS011;20582;52.196;20.952;2022-07-24T05:04:04;9.68;;;5.70;;
34317;SDS011;20582;52.196;20.952;2022-07-24T05:06:30;16.45;;;5.78;;
34317;SDS011;20582;52.196;20.952;2022-07-24T05:08:56;12.57;;;6.10;;
34317;SDS011;20582;52.196;20.952;2022-07-24T05:11:22;9.27;;;5.97;;
34317;SDS011;20582;52.196;20.952;2022-07-24T05:13:48;12.50;;;6.03;;
34317;SDS011;20582;52.196;20.952;2022-07-24T05:16:14;12.23;;;5.78;;
34317;SDS011;20582;52.196;20.952;2022-07-24T05:18:40;12.63;;;5.90;;
34317;SDS011;20582;52.196;20.952;2022-07-24T05:21:06;16.00;;;5.95;;
34317;SDS011;20582;52.196;20.952;2022-07-24T05:23:32;8.63;;;5.25;;
34317;SDS011;20582;52.196;20.952;2022-07-24T05:25:59;9.10;;;4.63;;
34317;SDS011;20582;52.196;20.952;2022-07-24T05:28:25;12.10;;;4.55;;
34317;SDS011;20582;52.196;20.952;2022-07-24T05:30:51;12.18;;;4.40;;
34317;SDS011;20582;52.196;20.952;2022-07-24T05:33:17;9.30;;;4.35;;
34317;SDS011;20582;52.196;20.952;2022-07-24T05:35:43;9.75;;;3.95;;
34317;SDS011;20582;52.196;20.952;2022-07-24T05:38:09;6.90;;;4.07;;
34317;SDS011;20582;52.196;20.952;2022-07-24T05:40:35;10.57;;;3.80;;
34317;SDS011;20582;52.196;20.952;2022-07-24T05:43:01;6.53;;;4.18;;
34317;SDS011;20582;52.196;20.952;2022-07-24T05:45:27;6.60;;;3.70;;
34317;SDS011;20582;52.196;20.952;2022-07-24T05:47:53;11.20;;;3.90;;
34317;SDS011;20582;52.196;20.952;2022-07-24T05:50:19;8.52;;;3.50;;
34317;SDS011;20582;52.196;20.952;2022-07-24T05:52:45;9.23;;;3.17;;
34317;SDS011;20582;52.196;20.952;2022-07-24T05:55:11;8.57;;;3.28;;
34317;SDS011;20582;52.196;20.952;2022-07-24T05:57:37;8.02;;;3.28;;
34317;SDS011;20582;52.196;20.952;2022-07-24T06:00:03;10.48;;;3.28;;
34317;SDS011;20582;52.196;20.952;2022-07-24T06:02:29;9.93;;;3.05;;
34317;SDS011;20582;52.196;20.952;2022-07-24T06:04:55;6.55;;;3.25;;
34317;SDS011;20582;52.196;20.952;2022-07-24T06:07:21;7.10;;;2.75;;
34317;SDS011;20582;52.196;20.952;2022-07-24T06:09:47;4.50;;;2.80;;
34317;SDS011;20582;52.196;20.952;2022-07-24T06:12:13;8.70;;;3.03;;
34317;SDS011;20582;52.196;20.952;2022-07-24T06:14:39;7.55;;;3.20;;
34317;SDS011;20582;52.196;20.952;2022-07-24T06:17:05;7.05;;;3.00;;
34317;SDS011;20582;52.196;20.952;2022-07-24T06:19:31;7.65;;;3.35;;
34317;SDS011;20582;52.196;20.952;2022-07-24T06:21:57;8.35;;;3.20;;
34317;SDS011;20582;52.196;20.952;2022-07-24T06:24:23;11.07;;;3.47;;
34317;SDS011;20582;52.196;20.952;2022-07-24T06:26:49;11.43;;;3.40;;
34317;SDS011;20582;52.196;20.952;2022-07-24T06:29:15;7.60;;;3.03;;
34317;SDS011;20582;52.196;20.952;2022-07-24T06:31:41;7.28;;;2.97;;
34317;SDS011;20582;52.196;20.952;2022-07-24T06:34:07;7.15;;;2.97;;
34317;SDS011;20582;52.196;20.952;2022-07-24T06:36:34;4.40;;;2.53;;
34317;SDS011;20582;52.196;20.952;2022-07-24T06:39:00;7.72;;;3.03;;
34317;SDS011;20582;52.196;20.952;2022-07-24T06:41:26;11.90;;;3.10;;
34317;SDS011;20582;52.196;20.952;2022-07-24T06:43:52;7.93;;;2.90;;
34317;SDS011;20582;52.196;20.952;2022-07-24T06:46:18;8.10;;;3.40;;
34317;SDS011;20582;52.196;20.952;2022-07-24T06:48:44;11.77;;;3.30;;
34317;SDS011;20582;52.196;20.952;2022-07-24T06:51:10;7.78;;;3.00;;
34317;SDS011;20582;52.196;20.952;2022-07-24T06:53:36;9.55;;;3.05;;
34317;SDS011;20582;52.196;20.952;2022-07-24T06:56:05;7.82;;;2.80;;
34317;SDS011;20582;52.196;20.952;2022-07-24T06:58:31;6.43;;;2.70;;
34317;SDS011;20582;52.196;20.952;2022-07-24T07:00:57;8.63;;;2.80;;
34317;SDS011;20582;52.196;20.952;2022-07-24T07:03:23;5.43;;;2.70;;
34317;SDS011;20582;52.196;20.952;2022-07-24T07:05:49;6.05;;;2.55;;
34317;SDS011;20582;52.196;20.952;2022-07-24T07:08:15;5.45;;;2.22;;
34317;SDS011;20582;52.196;20.952;2022-07-24T07:10:41;9.70;;;2.67;;
34317;SDS011;20582;52.196;20.952;2022-07-24T07:13:07;7.03;;;2.25;;
34317;SDS011;20582;52.196;20.952;2022-07-24T07:15:33;4.38;;;2.17;;
34317;SDS011;20582;52.196;20.952;2022-07-24T07:17:59;5.43;;;2.30;;
34317;SDS011;20582;52.196;20.952;2022-07-24T07:20:25;8.75;;;2.30;;
34317;SDS011;20582;52.196;20.952;2022-07-24T07:22:51;5.78;;;2.00;;
34317;SDS011;20582;52.196;20.952;2022-07-24T07:25:17;8.18;;;2.55;;
34317;SDS011;20582;52.196;20.952;2022-07-24T07:27:43;6.00;;;2.05;;
34317;SDS011;20582;52.196;20.952;2022-07-24T07:30:09;6.25;;;2.60;;
34317;SDS011;20582;52.196;20.952;2022-07-24T07:32:37;6.82;;;2.17;;
34317;SDS011;20582;52.196;20.952;2022-07-24T07:35:03;7.20;;;2.33;;
34317;SDS011;20582;52.196;20.952;2022-07-24T07:37:29;7.35;;;2.30;;
34317;SDS011;20582;52.196;20.952;2022-07-24T07:39:55;6.68;;;2.30;;
34317;SDS011;20582;52.196;20.952;2022-07-24T07:42:23;6.45;;;2.28;;
34317;SDS011;20582;52.196;20.952;2022-07-24T07:44:49;7.22;;;3.00;;
34317;SDS011;20582;52.196;20.952;2022-07-24T07:47:15;5.82;;;2.60;;
34317;SDS011;20582;52.196;20.952;2022-07-24T07:49:41;5.65;;;2.97;;
34317;SDS011;20582;52.196;20.952;2022-07-24T07:52:07;7.88;;;2.92;;
34317;SDS011;20582;52.196;20.952;2022-07-24T07:54:33;4.90;;;2.80;;
34317;SDS011;20582;52.196;20.952;2022-07-24T07:56:59;7.45;;;3.60;;
34317;SDS011;20582;52.196;20.952;2022-07-24T07:59:25;7.95;;;4.03;;
34317;SDS011;20582;52.196;20.952;2022-07-24T08:01:51;9.98;;;4.53;;
34317;SDS011;20582;52.196;20.952;2022-07-24T08:04:17;6.35;;;4.20;;
34317;SDS011;20582;52.196;20.952;2022-07-24T08:06:43;8.93;;;4.20;;
34317;SDS011;20582;52.196;20.952;2022-07-24T08:09:09;6.57;;;4.03;;
34317;SDS011;20582;52.196;20.952;2022-07-24T08:11:35;6.53;;;3.88;;
34317;SDS011;20582;52.196;20.952;2022-07-24T08:14:01;6.70;;;3.50;;
34317;SDS011;20582;52.196;20.952;2022-07-24T08:16:27;6.22;;;3.50;;
34317;SDS011;20582;52.196;20.952;2022-07-24T08:18:53;8.15;;;3.60;;
34317;SDS011;20582;52.196;20.952;2022-07-24T08:21:19;8.30;;;3.70;;
34317;SDS011;20582;52.196;20.952;2022-07-24T08:23:47;7.18;;;3.72;;
34317;SDS011;20582;52.196;20.952;2022-07-24T08:26:13;7.20;;;3.90;;
34317;SDS011;20582;52.196;20.952;2022-07-24T08:28:39;5.22;;;3.67;;
34317;SDS011;20582;52.196;20.952;2022-07-24T08:31:06;6.43;;;3.50;;
34317;SDS011;20582;52.196;20.952;2022-07-24T08:33:32;6.72;;;3.42;;
34317;SDS011;20582;52.196;20.952;2022-07-24T08:35:59;6.93;;;3.53;;
34317;SDS011;20582;52.196;20.952;2022-07-24T08:38:25;6.78;;;3.42;;
34317;SDS011;20582;52.196;20.952;2022-07-24T08:40:51;7.35;;;3.15;;
34317;SDS011;20582;52.196;20.952;2022-07-24T08:43:17;5.97;;;3.60;;
34317;SDS011;20582;52.196;20.952;2022-07-24T08:45:43;7.30;;;3.53;;
34317;SDS011;20582;52.196;20.952;2022-07-24T08:48:09;6.13;;;3.35;;
34317;SDS011;20582;52.196;20.952;2022-07-24T08:50:37;6.65;;;2.70;;
34317;SDS011;20582;52.196;20.952;2022-07-24T08:53:04;5.88;;;3.15;;
34317;SDS011;20582;52.196;20.952;2022-07-24T08:55:30;6.88;;;2.97;;
34317;SDS011;20582;52.196;20.952;2022-07-24T08:57:57;5.28;;;2.97;;
34317;SDS011;20582;52.196;20.952;2022-07-24T09:00:23;6.20;;;3.17;;
34317;SDS011;20582;52.196;20.952;2022-07-24T09:02:49;7.28;;;2.70;;
34317;SDS011;20582;52.196;20.952;2022-07-24T09:05:15;4.68;;;2.97;;
34317;SDS011;20582;52.196;20.952;2022-07-24T09:07:41;4.78;;;3.10;;
34317;SDS011;20582;52.196;20.952;2022-07-24T09:10:12;6.47;;;3.35;;
34317;SDS011;20582;52.196;20.952;2022-07-24T09:12:39;6.70;;;3.63;;
34317;SDS011;20582;52.196;20.952;2022-07-24T09:17:51;5.10;;;2.72;;
34317;SDS011;20582;52.196;20.952;2022-07-24T09:20:17;4.55;;;2.67;;
34317;SDS011;20582;52.196;20.952;2022-07-24T09:22:44;5.13;;;2.88;;
34317;SDS011;20582;52.196;20.952;2022-07-24T09:27:40;6.88;;;3.38;;
34317;SDS011;20582;52.196;20.952;2022-07-24T09:30:07;4.50;;;2.92;;
34317;SDS011;20582;52.196;20.952;2022-07-24T09:32:34;6.45;;;3.00;;
34317;SDS011;20582;52.196;20.952;2022-07-24T09:35:01;4.47;;;2.80;;
34317;SDS011;20582;52.196;20.952;2022-07-24T09:37:27;5.05;;;2.55;;
34317;SDS011;20582;52.196;20.952;2022-07-24T09:39:56;5.82;;;2.55;;
34317;SDS011;20582;52.196;20.952;2022-07-24T09:42:31;3.08;;;2.17;;
34317;SDS011;20582;52.196;20.952;2022-07-24T09:45:03;6.30;;;2.10;;
34317;SDS011;20582;52.196;20.952;2022-07-24T09:47:30;2.92;;;2.30;;
34317;SDS011;20582;52.196;20.952;2022-07-24T09:49:57;3.85;;;2.47;;
34317;SDS011;20582;52.196;20.952;2022-07-24T09:52:36;6.22;;;2.90;;
34317;SDS011;20582;52.196;20.952;2022-07-24T09:55:03;4.45;;;3.00;;
34317;SDS011;20582;52.196;20.952;2022-07-24T09:57:29;5.00;;;3.35;;
34317;SDS011;20582;52.196;20.952;2022-07-24T10:00:00;4.85;;;2.80;;
34317;SDS011;20582;52.196;20.952;2022-07-24T10:02:28;3.83;;;2.78;;
34317;SDS011;20582;52.196;20.952;2022-07-24T10:04:54;4.68;;;2.80;;
34317;SDS011;20582;52.196;20.952;2022-07-24T10:07:21;3.58;;;2.70;;
34317;SDS011;20582;52.196;20.952;2022-07-24T10:09:48;3.72;;;2.88;;
34317;SDS011;20582;52.196;20.952;2022-07-24T10:12:15;4.45;;;3.15;;
34317;SDS011;20582;52.196;20.952;2022-07-24T10:14:45;5.53;;;3.05;;
34317;SDS011;20582;52.196;20.952;2022-07-24T10:17:12;3.08;;;2.70;;
34317;SDS011;20582;52.196;20.952;2022-07-24T10:19:42;4.80;;;3.13;;
34317;SDS011;20582;52.196;20.952;2022-07-24T10:22:16;3.13;;;2.47;;
34317;SDS011;20582;52.196;20.952;2022-07-24T10:27:18;5.45;;;2.83;;
34317;SDS011;20582;52.196;20.952;2022-07-24T10:29:46;5.55;;;2.72;;
34317;SDS011;20582;52.196;20.952;2022-07-24T10:32:13;4.72;;;2.70;;
34317;SDS011;20582;52.196;20.952;2022-07-24T10:34:55;4.97;;;2.78;;
34317;SDS011;20582;52.196;20.952;2022-07-24T10:42:23;6.47;;;2.75;;
34317;SDS011;20582;52.196;20.952;2022-07-24T10:47:49;5.32;;;2.67;;
34317;SDS011;20582;52.196;20.952;2022-07-24T10:50:20;5.15;;;2.90;;
34317;SDS011;20582;52.196;20.952;2022-07-24T10:52:47;4.53;;;2.50;;
34317;SDS011;20582;52.196;20.952;2022-07-24T10:55:23;4.53;;;2.60;;
34317;SDS011;20582;52.196;20.952;2022-07-24T10:57:59;5.07;;;2.80;;
34317;SDS011;20582;52.196;20.952;2022-07-24T11:00:36;4.32;;;2.17;;
34317;SDS011;20582;52.196;20.952;2022-07-24T11:03:03;4.45;;;2.60;;
34317;SDS011;20582;52.196;20.952;2022-07-24T11:13:03;5.90;;;2.40;;
34317;SDS011;20582;52.196;20.952;2022-07-24T11:18:34;3.15;;;2.20;;
34317;SDS011;20582;52.196;20.952;2022-07-24T11:21:00;3.20;;;2.00;;
34317;SDS011;20582;52.196;20.952;2022-07-24T11:23:26;2.85;;;2.10;;
34317;SDS011;20582;52.196;20.952;2022-07-24T11:26:19;3.13;;;2.20;;
34317;SDS011;20582;52.196;20.952;2022-07-24T11:28:38;3.47;;;2.00;;
34317;SDS011;20582;52.196;20.952;2022-07-24T11:31:04;5.63;;;2.30;;
34317;SDS011;20582;52.196;20.952;2022-07-24T11:33:30;2.80;;;2.00;;
34317;SDS011;20582;52.196;20.952;2022-07-24T11:35:56;3.25;;;2.17;;
34317;SDS011;20582;52.196;20.952;2022-07-24T11:38:27;5.57;;;2.38;;
34317;SDS011;20582;52.196;20.952;2022-07-24T11:41:04;2.92;;;2.30;;
34317;SDS011;20582;52.196;20.952;2022-07-24T11:43:30;5.10;;;2.28;;
34317;SDS011;20582;52.196;20.952;2022-07-24T11:45:56;3.13;;;2.20;;
34317;SDS011;20582;52.196;20.952;2022-07-24T11:48:22;3.33;;;2.22;;
34317;SDS011;20582;52.196;20.952;2022-07-24T11:50:48;5.47;;;2.60;;
34317;SDS011;20582;52.196;20.952;2022-07-24T11:53:14;4.20;;;2.40;;
34317;SDS011;20582;52.196;20.952;2022-07-24T11:55:40;6.40;;;2.47;;
34317;SDS011;20582;52.196;20.952;2022-07-24T11:58:06;5.53;;;2.40;;
34317;SDS011;20582;52.196;20.952;2022-07-24T12:00:32;6.32;;;2.80;;
34317;SDS011;20582;52.196;20.952;2022-07-24T12:02:59;4.13;;;2.97;;
34317;SDS011;20582;52.196;20.952;2022-07-24T12:05:29;6.07;;;2.60;;
34317;SDS011;20582;52.196;20.952;2022-07-24T12:07:56;5.32;;;2.80;;
34317;SDS011;20582;52.196;20.952;2022-07-24T12:10:22;3.30;;;2.70;;
34317;SDS011;20582;52.196;20.952;2022-07-24T12:12:52;5.50;;;3.08;;
34317;SDS011;20582;52.196;20.952;2022-07-24T12:15:19;8.40;;;2.85;;
34317;SDS011;20582;52.196;20.952;2022-07-24T12:20:24;4.32;;;2.53;;
34317;SDS011;20582;52.196;20.952;2022-07-24T12:22:51;6.80;;;2.90;;
34317;SDS011;20582;52.196;20.952;2022-07-24T12:25:17;4.47;;;2.70;;
34317;SDS011;20582;52.196;20.952;2022-07-24T12:27:44;3.30;;;2.42;;
34317;SDS011;20582;52.196;20.952;2022-07-24T12:30:19;3.42;;;2.47;;
34317;SDS011;20582;52.196;20.952;2022-07-24T12:35:58;4.93;;;3.38;;
34317;SDS011;20582;52.196;20.952;2022-07-24T12:38:34;4.85;;;3.08;;
34317;SDS011;20582;52.196;20.952;2022-07-24T12:41:03;9.80;;;3.33;;
34317;SDS011;20582;52.196;20.952;2022-07-24T12:43:29;6.45;;;3.53;;
34317;SDS011;20582;52.196;20.952;2022-07-24T12:46:08;5.55;;;3.50;;
34317;SDS011;20582;52.196;20.952;2022-07-24T12:48:35;7.05;;;3.83;;
34317;SDS011;20582;52.196;20.952;2022-07-24T12:51:06;6.10;;;3.45;;
34317;SDS011;20582;52.196;20.952;2022-07-24T12:53:35;4.38;;;2.92;;
34317;SDS011;20582;52.196;20.952;2022-07-24T12:56:02;4.78;;;2.90;;
34317;SDS011;20582;52.196;20.952;2022-07-24T12:58:28;5.00;;;2.80;;
34317;SDS011;20582;52.196;20.952;2022-07-24T13:00:58;4.63;;;3.05;;
34317;SDS011;20582;52.196;20.952;2022-07-24T13:03:25;3.88;;;2.65;;
34317;SDS011;20582;52.196;20.952;2022-07-24T13:05:53;3.72;;;2.40;;
34317;SDS011;20582;52.196;20.952;2022-07-24T13:08:20;3.72;;;2.53;;
34317;SDS011;20582;52.196;20.952;2022-07-24T13:10:46;5.82;;;2.80;;
34317;SDS011;20582;52.196;20.952;2022-07-24T13:13:12;3.20;;;2.30;;
34317;SDS011;20582;52.196;20.952;2022-07-24T13:15:38;3.92;;;2.50;;
34317;SDS011;20582;52.196;20.952;2022-07-24T13:18:04;4.47;;;2.40;;
34317;SDS011;20582;52.196;20.952;2022-07-24T13:20:31;5.00;;;2.50;;
34317;SDS011;20582;52.196;20.952;2022-07-24T13:22:57;5.03;;;2.40;;
34317;SDS011;20582;52.196;20.952;2022-07-24T13:25:23;6.75;;;2.40;;
34317;SDS011;20582;52.196;20.952;2022-07-24T13:27:49;3.55;;;2.30;;
34317;SDS011;20582;52.196;20.952;2022-07-24T13:30:15;3.50;;;2.30;;
34317;SDS011;20582;52.196;20.952;2022-07-24T13:32:41;2.50;;;2.30;;
34317;SDS011;20582;52.196;20.952;2022-07-24T13:35:07;4.10;;;2.75;;
34317;SDS011;20582;52.196;20.952;2022-07-24T13:37:34;3.90;;;2.22;;
34317;SDS011;20582;52.196;20.952;2022-07-24T13:40:00;2.47;;;2.20;;
34317;SDS011;20582;52.196;20.952;2022-07-24T13:42:28;3.13;;;2.10;;
34317;SDS011;20582;52.196;20.952;2022-07-24T13:44:53;3.28;;;2.60;;
34317;SDS011;20582;52.196;20.952;2022-07-24T13:47:19;5.93;;;3.45;;
34317;SDS011;20582;52.196;20.952;2022-07-24T13:49:45;3.83;;;2.78;;
34317;SDS011;20582;52.196;20.952;2022-07-24T13:52:11;4.68;;;3.40;;
34317;SDS011;20582;52.196;20.952;2022-07-24T13:54:37;5.97;;;4.90;;
34317;SDS011;20582;52.196;20.952;2022-07-24T13:57:04;6.72;;;5.00;;
34317;SDS011;20582;52.196;20.952;2022-07-24T13:59:29;5.57;;;4.50;;
34317;SDS011;20582;52.196;20.952;2022-07-24T14:01:56;7.22;;;4.20;;
34317;SDS011;20582;52.196;20.952;2022-07-24T14:04:22;5.22;;;4.00;;
34317;SDS011;20582;52.196;20.952;2022-07-24T14:06:47;5.25;;;3.95;;
34317;SDS011;20582;52.196;20.952;2022-07-24T14:09:13;5.82;;;4.20;;
34317;SDS011;20582;52.196;20.952;2022-07-24T14:11:39;5.75;;;4.30;;
34317;SDS011;20582;52.196;20.952;2022-07-24T14:14:06;5.72;;;4.25;;
34317;SDS011;20582;52.196;20.952;2022-07-24T14:16:32;7.15;;;4.80;;
34317;SDS011;20582;52.196;20.952;2022-07-24T14:18:58;7.35;;;5.28;;
34317;SDS011;20582;52.196;20.952;2022-07-24T14:21:24;8.55;;;6.47;;
34317;SDS011;20582;52.196;20.952;2022-07-24T14:23:50;8.23;;;7.18;;
34317;SDS011;20582;52.196;20.952;2022-07-24T14:26:16;9.40;;;7.32;;
34317;SDS011;20582;52.196;20.952;2022-07-24T14:28:42;7.35;;;6.55;;
34317;SDS011;20582;52.196;20.952;2022-07-24T14:31:08;8.65;;;6.80;;
34317;SDS011;20582;52.196;20.952;2022-07-24T14:33:34;9.13;;;7.72;;
34317;SDS011;20582;52.196;20.952;2022-07-24T14:36:00;7.53;;;6.15;;
34317;SDS011;20582;52.196;20.952;2022-07-24T14:38:26;8.00;;;5.80;;
34317;SDS011;20582;52.196;20.952;2022-07-24T14:40:52;7.82;;;5.68;;
34317;SDS011;20582;52.196;20.952;2022-07-24T14:43:18;6.88;;;4.95;;
34317;SDS011;20582;52.196;20.952;2022-07-24T14:45:44;6.85;;;4.85;;
34317;SDS011;20582;52.196;20.952;2022-07-24T14:48:11;6.93;;;4.55;;
34317;SDS011;20582;52.196;20.952;2022-07-24T14:50:38;6.03;;;4.43;;
34317;SDS011;20582;52.196;20.952;2022-07-24T14:53:04;6.18;;;4.20;;
34317;SDS011;20582;52.196;20.952;2022-07-24T14:55:30;5.13;;;3.63;;
34317;SDS011;20582;52.196;20.952;2022-07-24T14:57:56;6.65;;;4.35;;